Siletz, OR (97380)

1:32 PM PDT on September 01, 2014 (GMT -0700)
Ed & Pams Station | Change Station
CLOSE
Current Station
Personal Weather Station
Location: Siletz, OR
Elevation: 95 ft
Nearby Weather Stations

Elev 95 ft 44.80 °N, 123.90 °W | Updated 32 seconds ago

Clear
Clear
73.7 °F
Feels Like 76 °F
N
3.0
Wind Variable Wind from NNW
Gusts 5.0 mph

Today
High -- | Low -- °F
--% Chance of Precip.
Yesterday
High -- | Low -- °F
Precip. -- in
6:38 AM 7:52 PM
Waxing Crescent, 44% visible
Pressure 30.09 in
Visibility 10.0 miles
Clouds Clear
Heat Index 76 °F
Dew Point 61 °F
Humidity 64%
Rainfall 0.00 in
Snow Depth Not available.
UV 8 out of 12
Pollen 3.50 out of 12
Air Quality Not available.
Flu Activity Not available.
METAR KONP 012015Z AUTO 34009KT 10SM CLR 19/13 A3009 RMK AO2

More Conditions Fewer Conditions

Pressure 30.09 in
Visibility 10.0 miles
Clouds Clear
Heat Index 76 °F
Dew Point 61 °F
Humidity 64%
Rainfall 0.00 in
Snow Depth Not available.
UV 8 out of 12
Pollen 3.50 out of 12
Air Quality Not available.
Flu Activity Not available.
METAR KONP 012015Z AUTO 34009KT 10SM CLR 19/13 A3009 RMK AO2

More Conditions Fewer Conditions

10-Day Weather Forecast

Almanac

Astronomy

Sep. 01, 2014 Rise Set
Actual Time 6:38 AM PDT 7:52 PM PDT
Civil Twilight 6:07 AM PDT 8:22 PM PDT
Nautical Twilight 5:31 AM PDT 8:58 PM PDT
Astronomical Twilight 4:53 AM PDT 9:36 PM PDT
Moon 1:46 PM PDT 11:40 PM PDT
Length of Visible Light 14h 14m
Length of Day
13h 14m
Tomorrow will be 3m 0s shorter.
Waxing Crescent, 44% of the Moon is Illuminated
Today
Waxing Crescent
Sep 2
First Quarter
Sep 8
Full
Sep 15
Last Quarter
Sep 24
New

Today's Extremes

State Highs State Lows

Community

WunderPhotos

Upload Photos

1,749,398 photos uploaded!

WunderBlogs® & News

Nearby

Snow Depth

Station Depth Elevation
Daly Lake 0 in 3600 ft
Peavine Ridge 2 in 3500 ft
Hogg Pass 0 in 4760 ft
North Fork 0 in 3120 ft
Clackamas Lake 0 in 3400 ft

Earthquake Activity

City Distance Mag. Time & Date
No recent earthquake activity has been reported nearby.
Minimum magnitude displayed is 2.5.

Coastal Water Temperatures

Place Temperature
South Beach, OR 55.0 °F
Charleston, OR 57.0 °F

Nearby Weather Stations